Time;durP1;ratioP1;P1;durP2;ratioP2;P2;SDS_P1;SDS_P2;PMS_P1;PMS_P2;Temp;Humidity;BMP_temperature;BMP_pressure;BME280_temperature;BME280_humidity;BME280_pressure;Samples;Min_cycle;Max_cycle;Signal;HPM_P1;HPM_P2
2023/10/22 00:00:01;;;;;;;1.97;0.50;;;;;;;;;;5061821;28;20412;-59
2023/10/22 00:02:27;;;;;;;2.23;0.50;;;;;;;;;;5046207;28;20420;-58
2023/10/22 00:04:52;;;;;;;2.60;0.60;;;;;;;;;;5047232;28;20888;-58
2023/10/22 00:07:18;;;;;;;2.83;0.50;;;;;;;;;;5046701;28;20761;-58
2023/10/22 00:09:43;;;;;;;2.63;0.50;;;;;;;;;;5046811;28;20437;-58
2023/10/22 00:12:09;;;;;;;2.87;0.60;;;;;;;;;;5046012;28;20458;-58
2023/10/22 00:14:34;;;;;;;3.58;0.70;;;;;;;;;;5047262;28;20409;-58
2023/10/22 00:16:59;;;;;;;2.67;0.70;;;;;;;;;;5046910;28;20524;-58
2023/10/22 00:19:25;;;;;;;2.77;0.70;;;;;;;;;;5045173;28;20431;-58
2023/10/22 00:21:50;;;;;;;3.00;0.50;;;;;;;;;;5047119;28;20450;-58
2023/10/22 00:24:15;;;;;;;2.43;0.60;;;;;;;;;;5047185;28;20450;-58
2023/10/22 00:26:40;;;;;;;1.80;0.50;;;;;;;;;;5044087;28;20421;-58
2023/10/22 00:29:06;;;;;;;3.50;0.57;;;;;;;;;;5047094;28;20435;-58
2023/10/22 00:31:31;;;;;;;2.55;0.60;;;;;;;;;;5047665;28;20892;-58
2023/10/22 00:33:56;;;;;;;3.10;0.57;;;;;;;;;;5044290;28;20401;-58
2023/10/22 00:36:24;;;;;;;3.17;0.70;;;;;;;;;;5046488;28;20420;-58
2023/10/22 00:38:49;;;;;;;1.83;0.60;;;;;;;;;;5047295;28;21038;-58
2023/10/22 00:41:15;;;;;;;2.70;0.50;;;;;;;;;;5045159;28;20408;-58
2023/10/22 00:43:40;;;;;;;3.53;0.80;;;;;;;;;;5045991;28;20455;-58
2023/10/22 00:46:05;;;;;;;1.67;0.53;;;;;;;;;;5046808;28;20513;-58
2023/10/22 00:48:31;;;;;;;2.33;0.50;;;;;;;;;;5045908;28;20397;-58
2023/10/22 00:50:56;;;;;;;2.53;0.43;;;;;;;;;;5039857;28;20401;-58
2023/10/22 00:53:22;;;;;;;3.97;0.63;;;;;;;;;;5042996;28;20401;-58
2023/10/22 00:55:47;;;;;;;1.85;0.50;;;;;;;;;;5046449;28;20741;-58
2023/10/22 00:58:13;;;;;;;2.80;0.70;;;;;;;;;;5037954;28;20768;-58
2023/10/22 01:00:39;;;;;;;3.65;0.85;;;;;;;;;;5046658;28;20919;-58
2023/10/22 01:03:04;;;;;;;2.10;0.40;;;;;;;;;;5045807;28;20401;-58
2023/10/22 01:05:29;;;;;;;2.93;0.63;;;;;;;;;;5044743;28;20791;-58
2023/10/22 01:07:55;;;;;;;2.67;0.50;;;;;;;;;;5046629;28;20397;-58
2023/10/22 01:10:20;;;;;;;3.60;0.70;;;;;;;;;;5045659;28;20938;-58
2023/10/22 01:12:45;;;;;;;2.03;0.53;;;;;;;;;;5024878;28;20395;-57
2023/10/22 01:15:11;;;;;;;2.87;0.60;;;;;;;;;;5029413;28;20397;-58
2023/10/22 01:17:36;;;;;;;1.90;0.47;;;;;;;;;;5023824;28;20810;-57
2023/10/22 01:20:01;;;;;;;3.27;0.60;;;;;;;;;;5025258;28;20403;-58
2023/10/22 01:22:27;;;;;;;2.17;0.53;;;;;;;;;;5025680;28;21102;-57
2023/10/22 01:24:52;;;;;;;3.30;0.65;;;;;;;;;;5022613;28;20439;-57
2023/10/22 01:27:17;;;;;;;2.17;0.60;;;;;;;;;;5019391;28;20660;-57
2023/10/22 01:29:42;;;;;;;2.30;0.70;;;;;;;;;;5018245;28;20778;-57
2023/10/22 01:32:08;;;;;;;2.50;0.70;;;;;;;;;;5015039;28;20413;-58
2023/10/22 01:34:33;;;;;;;2.80;0.57;;;;;;;;;;5020642;28;21135;-58
2023/10/22 01:36:58;;;;;;;3.17;0.60;;;;;;;;;;5026033;28;21017;-58
2023/10/22 01:39:24;;;;;;;3.50;0.70;;;;;;;;;;5025846;28;20389;-57
2023/10/22 01:41:51;;;;;;;3.90;1.00;;;;;;;;;;5027705;28;20402;-57
2023/10/22 01:44:16;;;;;;;3.58;0.70;;;;;;;;;;5028715;28;20448;-58
2023/10/22 01:46:41;;;;;;;2.67;0.50;;;;;;;;;;5029988;28;20872;-58
2023/10/22 01:49:07;;;;;;;3.47;0.90;;;;;;;;;;5025161;28;20518;-58
2023/10/22 01:51:32;;;;;;;3.10;0.82;;;;;;;;;;5021177;28;20515;-58
2023/10/22 01:53:57;;;;;;;3.37;0.80;;;;;;;;;;5020301;28;21188;-58
2023/10/22 01:56:23;;;;;;;2.60;0.60;;;;;;;;;;5021115;28;20920;-57
2023/10/22 01:58:48;;;;;;;2.47;0.67;;;;;;;;;;5028062;28;20778;-57
2023/10/22 02:01:13;;;;;;;2.63;0.60;;;;;;;;;;5031561;28;20417;-57
2023/10/22 02:03:44;;;;;;;4.27;0.80;;;;;;;;;;5027520;28;20492;-58
2023/10/22 02:06:11;;;;;;;2.50;0.85;;;;;;;;;;5025978;28;20435;-58
2023/10/22 02:08:36;;;;;;;2.20;0.60;;;;;;;;;;5028665;28;20406;-58
2023/10/22 02:11:02;;;;;;;5.15;0.70;;;;;;;;;;5023274;28;20408;-58
2023/10/22 02:13:27;;;;;;;2.63;0.60;;;;;;;;;;5033367;28;20405;-58
2023/10/22 02:15:52;;;;;;;3.47;0.70;;;;;;;;;;5033801;28;20395;-58
2023/10/22 02:18:18;;;;;;;2.23;0.60;;;;;;;;;;5040943;28;20407;-58
2023/10/22 02:20:56;;;;;;;3.87;0.70;;;;;;;;;;5048753;28;20480;-58
2023/10/22 02:23:22;;;;;;;3.83;0.70;;;;;;;;;;5046802;28;20382;-58
2023/10/22 02:25:47;;;;;;;3.03;0.70;;;;;;;;;;5049269;28;20422;-58
2023/10/22 02:28:13;;;;;;;3.67;0.63;;;;;;;;;;5048647;28;20402;-57
2023/10/22 02:30:38;;;;;;;2.50;0.60;;;;;;;;;;5048175;28;20407;-58
2023/10/22 02:33:04;;;;;;;3.00;0.63;;;;;;;;;;5048332;28;20417;-59
2023/10/22 02:35:29;;;;;;;2.43;0.67;;;;;;;;;;5048389;28;20407;-58
2023/10/22 02:37:55;;;;;;;2.53;0.70;;;;;;;;;;5048138;28;20397;-59
2023/10/22 02:40:20;;;;;;;3.80;0.70;;;;;;;;;;5046718;28;20440;-59
2023/10/22 02:42:45;;;;;;;3.70;0.70;;;;;;;;;;5049542;28;20410;-59
2023/10/22 02:45:10;;;;;;;4.40;0.80;;;;;;;;;;5048531;28;20850;-59
2023/10/22 02:47:36;;;;;;;3.93;0.80;;;;;;;;;;5046429;28;20461;-59
2023/10/22 02:50:01;;;;;;;2.93;0.80;;;;;;;;;;5048262;28;20413;-59
2023/10/22 02:52:26;;;;;;;3.70;1.10;;;;;;;;;;5049203;28;20462;-59
2023/10/22 02:54:53;;;;;;;2.80;0.60;;;;;;;;;;5046100;28;20703;-58
2023/10/22 02:57:18;;;;;;;4.70;0.80;;;;;;;;;;5048630;28;20413;-59
2023/10/22 02:59:44;;;;;;;2.13;0.70;;;;;;;;;;5049186;28;20402;-58
2023/10/22 03:02:09;;;;;;;2.50;0.70;;;;;;;;;;5045897;28;21225;-58
2023/10/22 03:04:34;;;;;;;3.43;0.83;;;;;;;;;;5048218;28;20393;-58
2023/10/22 03:07:00;;;;;;;3.30;0.90;;;;;;;;;;5048621;28;20437;-58
2023/10/22 03:09:25;;;;;;;3.30;0.85;;;;;;;;;;5046611;28;20580;-58
2023/10/22 03:11:50;;;;;;;3.23;0.90;;;;;;;;;;5047867;28;20409;-58
2023/10/22 03:14:20;;;;;;;3.30;0.80;;;;;;;;;;5048143;28;20453;-58
2023/10/22 03:16:45;;;;;;;2.90;0.90;;;;;;;;;;5047414;28;20904;-58
2023/10/22 03:19:11;;;;;;;3.15;0.90;;;;;;;;;;5045729;28;20418;-58
2023/10/22 03:21:36;;;;;;;2.47;1.00;;;;;;;;;;5048032;28;20758;-58
2023/10/22 03:24:03;;;;;;;2.67;0.90;;;;;;;;;;5047382;28;20408;-59
2023/10/22 03:26:30;;;;;;;3.03;0.80;;;;;;;;;;5045769;28;20408;-58
2023/10/22 03:28:55;;;;;;;4.95;1.10;;;;;;;;;;5048663;28;20405;-58
2023/10/22 03:31:20;;;;;;;4.23;1.10;;;;;;;;;;5047526;28;20385;-59
2023/10/22 03:33:46;;;;;;;3.70;1.02;;;;;;;;;;5046330;28;20516;-58
2023/10/22 03:36:14;;;;;;;3.15;1.17;;;;;;;;;;5047348;28;20570;-58
2023/10/22 03:38:39;;;;;;;4.45;1.17;;;;;;;;;;5047648;28;20466;-58
2023/10/22 03:41:05;;;;;;;3.83;1.10;;;;;;;;;;5046610;28;20417;-58
2023/10/22 03:43:30;;;;;;;4.73;1.30;;;;;;;;;;5047373;28;20404;-58
2023/10/22 03:45:56;;;;;;;4.95;1.20;;;;;;;;;;5047662;28;20457;-58
2023/10/22 03:48:22;;;;;;;3.50;1.00;;;;;;;;;;5046766;28;20906;-58
2023/10/22 03:50:47;;;;;;;3.90;1.17;;;;;;;;;;5045629;28;20459;-58
2023/10/22 03:53:12;;;;;;;3.53;1.00;;;;;;;;;;5047544;28;20466;-58
2023/10/22 03:55:37;;;;;;;5.33;1.17;;;;;;;;;;5024987;28;22293;-58
2023/10/22 03:58:03;;;;;;;5.27;1.10;;;;;;;;;;5017791;28;20896;-58
2023/10/22 04:00:28;;;;;;;4.22;1.15;;;;;;;;;;5017827;28;20429;-58
2023/10/22 04:02:54;;;;;;;4.40;1.33;;;;;;;;;;5025025;28;20412;-58
2023/10/22 04:05:19;;;;;;;3.83;1.27;;;;;;;;;;5026364;28;20417;-59
2023/10/22 04:07:44;;;;;;;4.07;1.30;;;;;;;;;;5024039;28;20456;-59
2023/10/22 04:10:09;;;;;;;4.33;1.40;;;;;;;;;;5024797;28;20414;-59
2023/10/22 04:12:35;;;;;;;4.40;1.10;;;;;;;;;;5026264;28;20821;-59
2023/10/22 04:15:01;;;;;;;4.38;1.30;;;;;;;;;;5024943;28;20413;-60
2023/10/22 04:17:26;;;;;;;4.70;1.30;;;;;;;;;;5018729;28;20469;-59
2023/10/22 04:19:51;;;;;;;4.47;1.27;;;;;;;;;;5017268;28;20407;-59
2023/10/22 04:22:16;;;;;;;3.17;1.30;;;;;;;;;;5016619;28;20535;-59
2023/10/22 04:24:42;;;;;;;5.37;1.43;;;;;;;;;;5023767;28;20406;-59
2023/10/22 04:27:07;;;;;;;4.23;1.40;;;;;;;;;;5024159;28;20849;-59
2023/10/22 04:29:32;;;;;;;4.38;1.38;;;;;;;;;;5028415;28;20834;-59
2023/10/22 04:31:58;;;;;;;4.00;1.50;;;;;;;;;;5025021;28;20926;-59
2023/10/22 04:34:23;;;;;;;3.30;1.60;;;;;;;;;;5023822;28;20413;-58
2023/10/22 04:36:48;;;;;;;3.10;1.60;;;;;;;;;;5027165;28;20909;-58
2023/10/22 04:39:13;;;;;;;3.77;1.60;;;;;;;;;;5016241;28;20406;-59
2023/10/22 04:41:39;;;;;;;3.63;1.67;;;;;;;;;;5015109;28;20448;-58
2023/10/22 04:44:04;;;;;;;3.40;1.70;;;;;;;;;;5021122;28;20496;-58
2023/10/22 04:46:30;;;;;;;3.38;1.63;;;;;;;;;;5025695;28;20916;-58
2023/10/22 04:48:55;;;;;;;4.40;1.80;;;;;;;;;;5028556;28;20937;-58
2023/10/22 04:51:21;;;;;;;4.57;1.70;;;;;;;;;;5024904;28;20441;-59
2023/10/22 04:53:46;;;;;;;4.50;1.90;;;;;;;;;;5026134;28;20453;-58
2023/10/22 04:56:12;;;;;;;3.20;1.90;;;;;;;;;;5023047;28;20406;-58
2023/10/22 04:58:37;;;;;;;4.63;1.80;;;;;;;;;;5025562;28;20528;-58
2023/10/22 05:01:02;;;;;;;3.55;1.75;;;;;;;;;;5027179;28;21162;-59
2023/10/22 05:03:28;;;;;;;4.33;1.80;;;;;;;;;;5020081;28;20968;-58
2023/10/22 05:05:54;;;;;;;3.67;1.67;;;;;;;;;;5019682;28;20455;-58
2023/10/22 05:08:23;;;;;;;2.53;1.80;;;;;;;;;;5023671;28;20576;-59
2023/10/22 05:10:48;;;;;;;4.13;1.70;;;;;;;;;;5031153;28;20392;-58
2023/10/22 05:13:13;;;;;;;3.83;2.13;;;;;;;;;;5021112;28;20416;-59
2023/10/22 05:15:38;;;;;;;4.10;1.77;;;;;;;;;;5026124;28;20732;-59
2023/10/22 05:18:04;;;;;;;4.77;2.03;;;;;;;;;;5025110;28;20411;-59
2023/10/22 05:20:30;;;;;;;4.90;2.00;;;;;;;;;;5030972;28;20395;-58
2023/10/22 05:22:55;;;;;;;5.17;2.37;;;;;;;;;;5034564;28;20414;-58
2023/10/22 05:25:20;;;;;;;3.40;1.90;;;;;;;;;;5050295;28;20404;-59
2023/10/22 05:27:46;;;;;;;4.23;2.13;;;;;;;;;;5066914;28;20420;-59
2023/10/22 05:30:12;;;;;;;5.40;2.17;;;;;;;;;;5063482;28;20872;-59
2023/10/22 05:32:37;;;;;;;5.50;2.77;;;;;;;;;;5061558;28;20393;-59
2023/10/22 05:35:03;;;;;;;6.60;2.77;;;;;;;;;;5053562;28;20858;-59
2023/10/22 05:37:29;;;;;;;5.43;2.90;;;;;;;;;;5064887;28;20404;-59
2023/10/22 05:39:55;;;;;;;7.85;3.33;;;;;;;;;;5062792;28;20422;-59
2023/10/22 05:42:21;;;;;;;5.07;3.20;;;;;;;;;;5066183;28;20387;-58
2023/10/22 05:44:46;;;;;;;7.30;4.00;;;;;;;;;;5065540;28;20804;-59
2023/10/22 05:47:11;;;;;;;6.15;3.42;;;;;;;;;;5061022;28;20825;-59
2023/10/22 05:49:37;;;;;;;6.27;2.83;;;;;;;;;;5067160;28;20412;-59
2023/10/22 05:52:03;;;;;;;7.07;3.03;;;;;;;;;;5065661;28;20423;-59
2023/10/22 05:54:29;;;;;;;5.30;2.75;;;;;;;;;;5061328;28;20404;-59
2023/10/22 05:56:54;;;;;;;5.40;3.03;;;;;;;;;;5066187;28;20419;-59
2023/10/22 05:59:19;;;;;;;5.82;2.42;;;;;;;;;;5065164;28;20418;-59
2023/10/22 06:01:44;;;;;;;4.60;2.27;;;;;;;;;;5061213;28;20403;-60
2023/10/22 06:04:10;;;;;;;5.80;2.70;;;;;;;;;;5065354;28;20442;-59
2023/10/22 06:06:36;;;;;;;5.90;2.80;;;;;;;;;;5065478;28;20456;-60
2023/10/22 06:09:01;;;;;;;4.65;2.70;;;;;;;;;;5044940;28;20464;-60
2023/10/22 06:11:26;;;;;;;6.10;3.20;;;;;;;;;;5057396;28;20482;-59
2023/10/22 06:13:52;;;;;;;6.83;3.70;;;;;;;;;;5054375;28;20415;-59
2023/10/22 06:16:17;;;;;;;6.17;3.60;;;;;;;;;;5053439;28;20403;-59
2023/10/22 06:18:42;;;;;;;6.38;4.15;;;;;;;;;;5054107;28;20445;-59
2023/10/22 06:21:10;;;;;;;7.30;4.30;;;;;;;;;;5053728;28;20919;-59
2023/10/22 06:23:35;;;;;;;7.78;4.55;;;;;;;;;;5055092;28;20413;-59
2023/10/22 06:26:01;;;;;;;7.27;4.57;;;;;;;;;;5054627;28;20426;-60
2023/10/22 06:28:26;;;;;;;7.53;4.65;;;;;;;;;;5052495;28;20405;-59
2023/10/22 06:30:51;;;;;;;8.13;5.17;;;;;;;;;;5054342;28;20452;-59
2023/10/22 06:33:17;;;;;;;8.40;4.97;;;;;;;;;;5043781;28;20404;-60
2023/10/22 06:35:42;;;;;;;7.23;4.93;;;;;;;;;;5047919;28;20398;-59
2023/10/22 06:38:07;;;;;;;7.33;5.00;;;;;;;;;;5055128;28;20915;-60
2023/10/22 06:40:33;;;;;;;8.07;4.60;;;;;;;;;;5050840;28;20424;-60
2023/10/22 06:42:59;;;;;;;7.05;4.20;;;;;;;;;;5053094;28;20436;-59
2023/10/22 06:45:24;;;;;;;6.37;4.00;;;;;;;;;;5059931;28;20854;-59
2023/10/22 06:47:50;;;;;;;6.55;3.83;;;;;;;;;;5062165;28;20518;-58
2023/10/22 06:50:16;;;;;;;6.72;3.70;;;;;;;;;;5065481;28;20894;-58
2023/10/22 06:52:42;;;;;;;6.77;3.63;;;;;;;;;;5064126;28;20408;-58
2023/10/22 06:55:08;;;;;;;26.00;21.90;;;;;;;;;;5060372;28;20481;-58
2023/10/22 06:57:33;;;;;;;14.85;11.52;;;;;;;;;;5065042;28;20459;-58
2023/10/22 06:59:58;;;;;;;9.40;7.30;;;;;;;;;;5065252;28;20435;-58
2023/10/22 07:02:24;;;;;;;7.50;5.47;;;;;;;;;;5059026;28;20408;-58
2023/10/22 07:04:51;;;;;;;7.22;5.38;;;;;;;;;;5064224;28;20453;-58
2023/10/22 07:07:16;;;;;;;7.13;4.30;;;;;;;;;;5062846;28;20457;-58
2023/10/22 07:09:42;;;;;;;7.47;4.27;;;;;;;;;;5059647;28;20906;-58
2023/10/22 07:12:07;;;;;;;7.75;4.32;;;;;;;;;;5063061;28;20902;-58
2023/10/22 07:14:33;;;;;;;7.37;4.40;;;;;;;;;;5065127;28;20552;-61
2023/10/22 07:16:58;;;;;;;7.03;4.30;;;;;;;;;;5061136;28;20471;-58
2023/10/22 07:19:23;;;;;;;7.63;4.20;;;;;;;;;;5057867;28;20451;-58
2023/10/22 07:21:48;;;;;;;7.78;4.53;;;;;;;;;;5064043;28;20399;-57
2023/10/22 07:24:14;;;;;;;8.43;4.07;;;;;;;;;;5062363;28;20407;-58
2023/10/22 07:26:39;;;;;;;8.27;4.40;;;;;;;;;;5061893;28;20422;-58
2023/10/22 07:29:04;;;;;;;8.17;4.47;;;;;;;;;;5062405;28;21019;-57
2023/10/22 07:31:30;;;;;;;8.57;4.40;;;;;;;;;;5052382;28;20405;-58
2023/10/22 07:33:55;;;;;;;6.40;4.00;;;;;;;;;;5053846;28;20995;-57
2023/10/22 07:36:20;;;;;;;6.97;3.63;;;;;;;;;;5057407;28;20782;-57
2023/10/22 07:38:46;;;;;;;8.17;3.63;;;;;;;;;;5064722;28;20430;-57
2023/10/22 07:41:13;;;;;;;6.30;3.58;;;;;;;;;;5059525;28;20876;-58
2023/10/22 07:43:39;;;;;;;6.10;3.08;;;;;;;;;;5063182;28;20906;-58
2023/10/22 07:46:04;;;;;;;7.73;3.00;;;;;;;;;;5064129;28;20418;-57
2023/10/22 07:48:29;;;;;;;7.07;2.90;;;;;;;;;;5059076;28;20437;-57
2023/10/22 07:50:55;;;;;;;5.72;3.10;;;;;;;;;;5063824;28;20435;-57
2023/10/22 07:53:21;;;;;;;5.30;2.70;;;;;;;;;;5055899;28;20398;-57
2023/10/22 07:55:47;;;;;;;9.13;2.92;;;;;;;;;;5060454;28;20408;-57
2023/10/22 07:58:12;;;;;;;6.27;2.60;;;;;;;;;;5061474;28;20392;-58
2023/10/22 08:00:37;;;;;;;6.63;2.50;;;;;;;;;;5064170;28;20865;-57
2023/10/22 08:03:03;;;;;;;5.85;2.58;;;;;;;;;;5058391;28;20433;-57
2023/10/22 08:05:29;;;;;;;5.63;2.10;;;;;;;;;;5059581;28;20399;-57
2023/10/22 08:07:54;;;;;;;6.40;2.08;;;;;;;;;;5063875;28;20420;-57
2023/10/22 08:10:19;;;;;;;4.40;1.90;;;;;;;;;;5060545;28;20408;-57
2023/10/22 08:12:45;;;;;;;7.00;2.60;;;;;;;;;;5059342;28;20411;-57
2023/10/22 08:15:10;;;;;;;5.33;2.07;;;;;;;;;;5063464;28;20463;-58
2023/10/22 08:17:35;;;;;;;5.63;2.20;;;;;;;;;;5058696;28;20400;-57
2023/10/22 08:20:01;;;;;;;5.83;1.80;;;;;;;;;;5057171;28;20406;-58
2023/10/22 08:22:26;;;;;;;5.37;1.97;;;;;;;;;;5061889;28;20464;-57
2023/10/22 08:24:51;;;;;;;6.70;1.80;;;;;;;;;;5063592;28;20411;-57
2023/10/22 08:27:17;;;;;;;4.45;1.75;;;;;;;;;;5056609;28;20455;-58
2023/10/22 08:29:42;;;;;;;5.97;1.80;;;;;;;;;;5063830;28;20396;-57
2023/10/22 08:32:07;;;;;;;4.03;1.70;;;;;;;;;;5062112;28;20897;-57
2023/10/22 08:34:32;;;;;;;4.70;1.60;;;;;;;;;;5059292;28;20403;-57
2023/10/22 08:36:58;;;;;;;5.53;1.60;;;;;;;;;;5057274;28;20399;-57
2023/10/22 08:39:29;;;;;;;4.10;1.50;;;;;;;;;;5062086;28;20404;-56
2023/10/22 08:41:59;;;;;;;5.07;1.42;;;;;;;;;;5059876;28;20400;-57
2023/10/22 08:44:25;;;;;;;5.35;1.58;;;;;;;;;;5060616;28;20898;-57
2023/10/22 08:46:50;;;;;;;4.03;1.40;;;;;;;;;;5044516;28;20457;-57
2023/10/22 08:49:16;;;;;;;3.57;1.30;;;;;;;;;;5061091;28;20920;-57
2023/10/22 08:51:41;;;;;;;3.33;1.13;;;;;;;;;;5060200;28;20914;-57
2023/10/22 08:54:09;;;;;;;5.00;1.40;;;;;;;;;;5062317;28;20396;-57
2023/10/22 08:56:36;;;;;;;5.00;1.55;;;;;;;;;;5062082;28;20478;-57
2023/10/22 08:59:01;;;;;;;4.47;1.20;;;;;;;;;;5058119;28;20482;-58
2023/10/22 09:01:26;;;;;;;4.67;1.30;;;;;;;;;;5062538;28;20925;-57
2023/10/22 09:03:52;;;;;;;3.27;1.40;;;;;;;;;;5046014;28;20882;-57
2023/10/22 09:06:19;;;;;;;4.35;1.15;;;;;;;;;;5058003;28;20430;-57
2023/10/22 09:08:45;;;;;;;4.15;1.20;;;;;;;;;;5062631;28;20821;-57
2023/10/22 09:11:12;;;;;;;4.40;1.40;;;;;;;;;;5062984;28;21004;-57
2023/10/22 09:13:38;;;;;;;5.20;1.30;;;;;;;;;;5058192;28;20391;-57
2023/10/22 09:16:03;;;;;;;5.87;1.30;;;;;;;;;;5061277;28;20431;-57
2023/10/22 09:18:28;;;;;;;5.27;1.03;;;;;;;;;;5054140;28;20408;-57
2023/10/22 09:20:54;;;;;;;5.37;1.30;;;;;;;;;;5059609;28;20741;-57
2023/10/22 09:23:21;;;;;;;4.10;1.10;;;;;;;;;;5042751;28;20392;-57
2023/10/22 09:25:47;;;;;;;6.72;1.10;;;;;;;;;;5062238;28;20796;-57
2023/10/22 09:28:13;;;;;;;3.80;1.27;;;;;;;;;;5060499;28;20499;-57
2023/10/22 09:30:40;;;;;;;4.35;1.30;;;;;;;;;;5055344;28;20402;-58
2023/10/22 09:33:06;;;;;;;3.42;1.00;;;;;;;;;;5038939;28;20415;-57
2023/10/22 09:35:31;;;;;;;3.60;1.00;;;;;;;;;;5020050;28;20406;-57
2023/10/22 09:37:58;;;;;;;4.67;1.30;;;;;;;;;;5025868;28;20689;-57
2023/10/22 09:40:24;;;;;;;3.00;1.30;;;;;;;;;;5037676;28;20420;-57
2023/10/22 09:42:50;;;;;;;5.47;1.40;;;;;;;;;;5028156;28;20897;-57
2023/10/22 09:45:16;;;;;;;5.95;1.45;;;;;;;;;;5023187;28;20411;-57
2023/10/22 09:47:41;;;;;;;3.45;1.10;;;;;;;;;;5023476;28;20403;-57
2023/10/22 09:50:07;;;;;;;4.07;1.20;;;;;;;;;;5025074;28;20437;-57
2023/10/22 09:52:34;;;;;;;3.08;1.00;;;;;;;;;;5024019;28;20387;-57
2023/10/22 09:54:59;;;;;;;4.38;1.25;;;;;;;;;;5005426;28;20399;-57
2023/10/22 09:57:27;;;;;;;4.10;1.20;;;;;;;;;;5014311;28;20392;-57
2023/10/22 09:59:52;;;;;;;5.22;1.17;;;;;;;;;;5017814;28;20434;-57
2023/10/22 10:02:19;;;;;;;4.77;1.10;;;;;;;;;;5000491;28;20429;-57
2023/10/22 10:04:45;;;;;;;4.35;1.27;;;;;;;;;;5025260;28;20407;-57
2023/10/22 10:07:10;;;;;;;4.73;1.10;;;;;;;;;;5008551;28;20422;-57
2023/10/22 10:09:35;;;;;;;4.37;1.20;;;;;;;;;;5026449;28;20402;-57
2023/10/22 10:12:02;;;;;;;4.00;1.10;;;;;;;;;;5024951;28;20398;-58
2023/10/22 10:14:42;;;;;;;6.30;1.33;;;;;;;;;;5026559;28;20407;-56
2023/10/22 10:17:08;;;;;;;4.23;1.20;;;;;;;;;;5025218;28;20884;-56
2023/10/22 10:19:33;;;;;;;4.13;1.00;;;;;;;;;;5000053;28;20923;-57
2023/10/22 10:21:58;;;;;;;3.57;1.00;;;;;;;;;;4999377;28;20483;-57
2023/10/22 10:24:24;;;;;;;5.03;1.03;;;;;;;;;;5000546;28;20399;-57
2023/10/22 10:26:50;;;;;;;3.47;1.00;;;;;;;;;;5023832;28;20924;-57
2023/10/22 10:29:16;;;;;;;3.72;0.90;;;;;;;;;;5015505;28;20411;-57
2023/10/22 10:31:45;;;;;;;4.07;1.17;;;;;;;;;;5008382;28;20424;-57
2023/10/22 10:34:13;;;;;;;3.38;0.90;;;;;;;;;;5012564;28;20966;-57
2023/10/22 10:36:38;;;;;;;4.35;1.00;;;;;;;;;;5010230;28;20403;-58
2023/10/22 10:39:22;;;;;;;4.78;1.10;;;;;;;;;;5010087;28;20825;-57
2023/10/22 10:41:52;;;;;;;3.53;0.85;;;;;;;;;;5012896;28;20837;-57
2023/10/22 10:44:17;;;;;;;4.10;0.80;;;;;;;;;;5005619;28;20409;-57
2023/10/22 10:46:42;;;;;;;4.20;1.13;;;;;;;;;;5000116;28;20413;-57
2023/10/22 10:49:08;;;;;;;4.43;0.90;;;;;;;;;;5004007;28;20413;-57
2023/10/22 10:51:33;;;;;;;3.40;0.80;;;;;;;;;;5013218;28;20402;-57
2023/10/22 10:54:02;;;;;;;4.27;0.90;;;;;;;;;;5020591;28;20799;-57
2023/10/22 10:56:47;;;;;;;2.58;0.90;;;;;;;;;;5011837;28;20405;-56
2023/10/22 10:59:26;;;;;;;3.55;1.00;;;;;;;;;;5011378;28;20422;-57
2023/10/22 11:02:10;;;;;;;2.45;0.90;;;;;;;;;;5025701;28;20424;-57
2023/10/22 11:04:36;;;;;;;4.17;0.90;;;;;;;;;;5023929;28;20426;-57
2023/10/22 11:07:02;;;;;;;3.40;0.90;;;;;;;;;;5022466;28;20416;-57
2023/10/22 11:09:27;;;;;;;2.95;0.90;;;;;;;;;;5024320;28;20424;-57
2023/10/22 11:11:54;;;;;;;2.63;0.70;;;;;;;;;;5027330;28;21124;-57
2023/10/22 11:14:19;;;;;;;2.60;0.70;;;;;;;;;;5029798;28;20480;-57
2023/10/22 11:16:51;;;;;;;4.70;0.80;;;;;;;;;;5030889;28;20893;-57
2023/10/22 11:19:23;;;;;;;3.23;1.00;;;;;;;;;;5029532;28;20417;-57
2023/10/22 11:21:48;;;;;;;3.63;0.77;;;;;;;;;;5029920;28;20905;-57
2023/10/22 11:24:14;;;;;;;2.97;0.70;;;;;;;;;;5031438;28;20459;-57
2023/10/22 11:26:39;;;;;;;2.90;0.80;;;;;;;;;;5025294;28;21521;-57
2023/10/22 11:29:04;;;;;;;3.20;0.80;;;;;;;;;;5021306;28;20438;-57
2023/10/22 11:31:29;;;;;;;2.63;0.80;;;;;;;;;;5012818;28;20399;-57
2023/10/22 11:33:55;;;;;;;3.80;1.17;;;;;;;;;;5025470;28;20896;-57
2023/10/22 11:36:23;;;;;;;4.03;0.97;;;;;;;;;;5028928;28;20469;-57
2023/10/22 11:38:50;;;;;;;3.97;1.10;;;;;;;;;;5031455;28;20409;-57
2023/10/22 11:41:15;;;;;;;3.42;0.90;;;;;;;;;;5035356;28;20410;-57
2023/10/22 11:43:43;;;;;;;4.10;0.80;;;;;;;;;;5029253;28;20402;-57
2023/10/22 11:46:08;;;;;;;4.20;0.95;;;;;;;;;;5033028;28;20421;-57
2023/10/22 11:48:37;;;;;;;4.38;0.80;;;;;;;;;;5032847;28;20414;-57
2023/10/22 11:51:04;;;;;;;1.77;0.70;;;;;;;;;;5020111;28;20433;-57
2023/10/22 11:53:40;;;;;;;3.20;0.98;;;;;;;;;;5022281;28;20399;-57
2023/10/22 11:56:05;;;;;;;1.93;1.00;;;;;;;;;;5025702;28;20474;-57
2023/10/22 11:58:30;;;;;;;3.10;1.00;;;;;;;;;;5029596;28;20409;-57
2023/10/22 12:00:55;;;;;;;3.50;1.00;;;;;;;;;;5020399;28;20855;-57
2023/10/22 12:03:21;;;;;;;3.45;1.25;;;;;;;;;;5010061;28;20520;-57
2023/10/22 12:05:48;;;;;;;3.38;1.20;;;;;;;;;;5008217;28;21271;-56
2023/10/22 12:08:13;;;;;;;4.72;1.30;;;;;;;;;;5008512;28;20412;-56
2023/10/22 12:10:38;;;;;;;2.70;1.20;;;;;;;;;;5010922;28;20415;-57
2023/10/22 12:13:06;;;;;;;3.87;1.10;;;;;;;;;;5001788;28;20425;-57
2023/10/22 12:15:32;;;;;;;3.08;1.00;;;;;;;;;;5000751;28;20885;-57
2023/10/22 12:17:57;;;;;;;3.28;1.30;;;;;;;;;;5003724;28;20420;-57
2023/10/22 12:20:22;;;;;;;4.17;1.17;;;;;;;;;;5012722;28;20937;-57
2023/10/22 12:22:48;;;;;;;2.43;1.00;;;;;;;;;;5008896;28;20887;-57
2023/10/22 12:25:14;;;;;;;3.43;0.90;;;;;;;;;;5008902;28;20405;-57
2023/10/22 12:27:39;;;;;;;3.83;1.20;;;;;;;;;;5010128;28;20759;-57
2023/10/22 12:30:05;;;;;;;3.13;1.10;;;;;;;;;;5009166;28;20843;-57
2023/10/22 12:32:31;;;;;;;2.40;1.10;;;;;;;;;;5009418;28;20412;-57
2023/10/22 12:34:56;;;;;;;2.90;1.10;;;;;;;;;;5002175;28;20508;-57
2023/10/22 12:37:21;;;;;;;2.97;1.13;;;;;;;;;;5000870;28;20550;-57
2023/10/22 12:39:47;;;;;;;2.30;1.00;;;;;;;;;;5001674;28;20471;-57
2023/10/22 12:42:12;;;;;;;2.80;1.10;;;;;;;;;;5006770;28;20792;-57
2023/10/22 12:44:41;;;;;;;3.40;1.13;;;;;;;;;;5008753;28;20407;-57
2023/10/22 12:47:12;;;;;;;4.32;1.13;;;;;;;;;;5007735;28;20413;-57
2023/10/22 12:49:37;;;;;;;3.53;1.20;;;;;;;;;;5010929;28;20432;-57
2023/10/22 12:52:03;;;;;;;2.80;1.50;;;;;;;;;;5008885;28;20831;-57
2023/10/22 12:54:28;;;;;;;2.95;1.33;;;;;;;;;;5008287;28;20403;-57
2023/10/22 12:56:54;;;;;;;3.47;1.10;;;;;;;;;;5012659;28;20415;-57
2023/10/22 12:59:19;;;;;;;2.60;1.30;;;;;;;;;;5000748;28;21123;-57
2023/10/22 13:01:44;;;;;;;4.13;1.40;;;;;;;;;;5015536;28;20409;-57
2023/10/22 13:04:10;;;;;;;2.97;1.10;;;;;;;;;;5022928;28;20784;-57
2023/10/22 13:06:35;;;;;;;3.57;1.33;;;;;;;;;;5028729;28;20878;-57
2023/10/22 13:09:00;;;;;;;3.27;1.20;;;;;;;;;;5028153;28;20414;-59
2023/10/22 13:11:30;;;;;;;3.72;1.10;;;;;;;;;;5029454;28;20392;-57
2023/10/22 13:13:55;;;;;;;2.83;1.27;;;;;;;;;;5032009;28;20931;-57
2023/10/22 13:16:20;;;;;;;3.33;1.10;;;;;;;;;;5027445;28;20415;-57
2023/10/22 13:18:46;;;;;;;2.90;1.37;;;;;;;;;;5028539;28;20537;-57
2023/10/22 13:21:11;;;;;;;3.57;1.57;;;;;;;;;;5014569;28;20408;-56
2023/10/22 13:23:36;;;;;;;4.60;1.30;;;;;;;;;;5020317;28;20405;-57
2023/10/22 13:26:02;;;;;;;5.77;1.60;;;;;;;;;;5020188;28;20960;-57
2023/10/22 13:28:27;;;;;;;3.55;1.60;;;;;;;;;;5027439;28;20442;-57
2023/10/22 13:30:52;;;;;;;3.77;1.30;;;;;;;;;;5028329;28;20405;-56
2023/10/22 13:33:18;;;;;;;3.17;1.30;;;;;;;;;;5027520;28;20469;-57
2023/10/22 13:35:43;;;;;;;3.37;1.27;;;;;;;;;;5032520;28;20953;-56
2023/10/22 13:38:09;;;;;;;4.43;1.37;;;;;;;;;;5038723;28;20450;-57
2023/10/22 13:40:36;;;;;;;3.13;1.30;;;;;;;;;;5032096;28;20411;-57
2023/10/22 13:43:01;;;;;;;4.77;1.10;;;;;;;;;;5028020;28;20438;-57
2023/10/22 13:45:28;;;;;;;3.20;1.10;;;;;;;;;;5025037;28;20409;-57
2023/10/22 13:47:53;;;;;;;2.20;1.10;;;;;;;;;;5033306;28;20417;-57
2023/10/22 13:50:18;;;;;;;3.00;1.17;;;;;;;;;;5028421;28;20430;-57
2023/10/22 13:52:44;;;;;;;3.70;1.10;;;;;;;;;;5031736;28;20428;-57
2023/10/22 13:55:10;;;;;;;4.80;1.10;;;;;;;;;;5031293;28;20450;-56
2023/10/22 13:57:35;;;;;;;2.83;1.02;;;;;;;;;;5031503;28;20797;-56
2023/10/22 14:00:01;;;;;;;3.30;1.00;;;;;;;;;;5031580;28;20405;-58
2023/10/22 14:02:26;;;;;;;1.90;0.87;;;;;;;;;;5011417;28;20417;-57
2023/10/22 14:04:51;;;;;;;2.97;1.07;;;;;;;;;;5010280;28;20822;-56
2023/10/22 14:07:17;;;;;;;2.90;0.90;;;;;;;;;;5004398;28;20962;-57
2023/10/22 14:09:42;;;;;;;3.45;0.98;;;;;;;;;;5011442;28;20482;-57
2023/10/22 14:12:07;;;;;;;3.93;1.03;;;;;;;;;;5005596;28;20405;-57
2023/10/22 14:14:37;;;;;;;3.00;0.80;;;;;;;;;;5014226;28;20450;-57
2023/10/22 14:17:02;;;;;;;2.67;1.10;;;;;;;;;;5010049;28;20504;-57
2023/10/22 14:19:28;;;;;;;4.17;1.13;;;;;;;;;;5010980;28;20484;-56
2023/10/22 14:21:53;;;;;;;2.90;0.90;;;;;;;;;;5013668;28;20565;-56
2023/10/22 14:24:18;;;;;;;2.87;0.80;;;;;;;;;;5010861;28;20399;-56
2023/10/22 14:26:44;;;;;;;3.13;0.65;;;;;;;;;;5011639;28;20420;-56
2023/10/22 14:29:09;;;;;;;2.90;0.83;;;;;;;;;;5005411;28;20524;-56
2023/10/22 14:31:34;;;;;;;1.80;0.70;;;;;;;;;;5004047;28;20411;-56
2023/10/22 14:34:00;;;;;;;3.53;0.90;;;;;;;;;;5004056;28;20410;-56